createdAt,value
2016-10-09T00:00:09.055Z,874.52
2016-10-09T00:01:09.023Z,874.92
2016-10-09T00:02:09.023Z,875.18
2016-10-09T00:03:09.024Z,875.17
2016-10-09T00:04:09.032Z,876.16
2016-10-09T00:05:09.028Z,875.83
2016-10-09T00:06:09.077Z,876.74
2016-10-09T00:07:09.014Z,876.3
2016-10-09T00:08:09.027Z,876.86
2016-10-09T00:09:09.030Z,876.45
2016-10-09T00:10:09.027Z,876.88
2016-10-09T00:11:09.033Z,876.74
2016-10-09T00:12:09.020Z,876.57
2016-10-09T00:13:09.039Z,877.46
2016-10-09T00:14:09.040Z,877.43
2016-10-09T00:15:09.032Z,877.12
2016-10-09T00:16:09.041Z,877.7
2016-10-09T00:17:09.027Z,877.68
2016-10-09T00:18:09.022Z,877.85
2016-10-09T00:19:09.032Z,878.27
2016-10-09T00:20:09.036Z,878.12
2016-10-09T00:21:09.027Z,877.68
2016-10-09T00:22:09.035Z,877.57
2016-10-09T00:23:09.023Z,877.27
2016-10-09T00:24:09.032Z,876.15
2016-10-09T00:25:09.036Z,875.78
2016-10-09T00:26:09.048Z,874.66
2016-10-09T00:27:09.040Z,874.26
2016-10-09T00:28:09.032Z,873.01
2016-10-09T00:29:09.038Z,871.98
2016-10-09T00:30:09.043Z,870.85
2016-10-09T00:31:09.038Z,870.44
2016-10-09T00:32:09.039Z,868.92
2016-10-09T00:33:09.048Z,867.93
2016-10-09T00:34:09.051Z,867.24
2016-10-09T00:35:09.073Z,865.8
2016-10-09T00:36:09.033Z,864.85
2016-10-09T00:37:09.056Z,863.68
2016-10-09T00:38:09.032Z,862.57
2016-10-09T00:39:09.045Z,861.56
2016-10-09T00:40:09.047Z,860.54
2016-10-09T00:41:09.126Z,860.43
2016-10-09T00:42:09.046Z,858.68
2016-10-09T00:43:09.052Z,857.56
2016-10-09T00:44:09.046Z,855.67
2016-10-09T00:45:09.035Z,854.66
2016-10-09T00:46:09.051Z,853.79
2016-10-09T00:47:09.051Z,851.93
2016-10-09T00:48:09.072Z,850.03
2016-10-09T00:49:09.067Z,848.73
2016-10-09T00:50:09.068Z,846.83
2016-10-09T00:51:09.059Z,844.78
2016-10-09T00:52:09.045Z,843.22
2016-10-09T00:53:09.052Z,841.77
2016-10-09T00:54:09.048Z,840.31
2016-10-09T00:55:09.060Z,838.63
2016-10-09T00:56:09.060Z,836.93
2016-10-09T00:57:09.067Z,835.16
2016-10-09T00:58:09.056Z,833.88
2016-10-09T00:59:09.064Z,831.94
2016-10-09T01:00:09.068Z,830.63
2016-10-09T01:01:09.075Z,828.72
2016-10-09T01:02:09.071Z,826.6
2016-10-09T01:03:09.081Z,824.99
2016-10-09T01:04:09.077Z,823.49
2016-10-09T01:05:09.064Z,822.61
2016-10-09T01:06:09.071Z,821.44
2016-10-09T01:07:09.072Z,820.03
2016-10-09T01:08:09.059Z,818.95
2016-10-09T01:09:09.067Z,817.62
2016-10-09T01:10:09.061Z,816.72
2016-10-09T01:11:09.067Z,815.66
2016-10-09T01:12:09.076Z,813.94
2016-10-09T01:13:09.068Z,812.88
2016-10-09T01:14:09.073Z,812.59
2016-10-09T01:15:09.063Z,811.53
2016-10-09T01:16:09.075Z,810.87
2016-10-09T01:17:09.075Z,810.07
2016-10-09T01:18:09.176Z,809.51
2016-10-09T01:19:09.083Z,808.47
2016-10-09T01:20:09.080Z,808.17
2016-10-09T01:21:09.090Z,806.65
2016-10-09T01:22:09.071Z,806.65
2016-10-09T01:23:09.094Z,806.05
2016-10-09T01:24:09.088Z,805.4
2016-10-09T01:25:09.092Z,804.47
2016-10-09T01:26:09.081Z,803.86
2016-10-09T01:27:09.083Z,803.38
2016-10-09T01:28:09.081Z,802.4
2016-10-09T01:29:09.094Z,801.6
2016-10-09T01:30:09.093Z,801.28
2016-10-09T01:31:09.077Z,801.19
2016-10-09T01:32:09.100Z,800.67
2016-10-09T01:33:09.086Z,799.29
2016-10-09T01:34:09.083Z,798.21
2016-10-09T01:35:09.083Z,798.19
2016-10-09T01:36:09.144Z,796.91
2016-10-09T01:37:09.097Z,796.18
2016-10-09T01:38:09.090Z,796.19
2016-10-09T01:39:09.094Z,795.4
2016-10-09T01:40:09.086Z,794.43
2016-10-09T01:41:09.106Z,794.42
2016-10-09T01:42:09.093Z,793.94
2016-10-09T01:43:09.134Z,793.66
2016-10-09T01:44:09.105Z,792.98
2016-10-09T01:45:09.100Z,792.73
2016-10-09T01:46:09.104Z,792.52
2016-10-09T01:47:09.102Z,791.12
2016-10-09T01:48:09.106Z,790.64
2016-10-09T01:49:09.112Z,790.01
2016-10-09T01:50:09.132Z,789.39
2016-10-09T01:51:09.094Z,789.11
2016-10-09T01:52:09.097Z,787.83
2016-10-09T01:53:09.122Z,785.9
2016-10-09T01:54:09.115Z,785.48
2016-10-09T01:55:09.102Z,783.85
2016-10-09T01:56:09.099Z,782.9
2016-10-09T01:57:09.106Z,781.01
2016-10-09T01:58:09.105Z,780.54
2016-10-09T01:59:09.102Z,779.26
2016-10-09T02:00:09.114Z,777.64
2016-10-09T02:01:09.117Z,777.2
2016-10-09T02:02:09.109Z,776.57
2016-10-09T02:03:09.111Z,776.54
2016-10-09T02:04:09.128Z,776.51
2016-10-09T02:05:09.123Z,777.05
2016-10-09T02:06:09.113Z,776.56
2016-10-09T02:07:09.112Z,777.33
2016-10-09T02:08:09.126Z,778
2016-10-09T02:09:09.110Z,778.15
2016-10-09T02:10:09.105Z,778.96
2016-10-09T02:11:09.116Z,779.16
2016-10-09T02:12:09.123Z,780.57
2016-10-09T02:13:09.106Z,780.99
2016-10-09T02:14:09.110Z,782.73
2016-10-09T02:15:09.128Z,783.03
2016-10-09T02:16:09.119Z,783.17
2016-10-09T02:17:09.135Z,783.03
2016-10-09T02:18:09.131Z,783.33
2016-10-09T02:19:09.126Z,783.98
2016-10-09T02:20:09.118Z,783.48
2016-10-09T02:21:09.106Z,783.49
2016-10-09T02:22:09.117Z,783.47
2016-10-09T02:23:09.110Z,782.65
2016-10-09T02:24:09.124Z,783
2016-10-09T02:25:09.124Z,782.69
2016-10-09T02:26:09.130Z,782.05
2016-10-09T02:27:09.121Z,781.93
2016-10-09T02:28:09.137Z,781.78
2016-10-09T02:29:09.119Z,780.83
2016-10-09T02:30:09.128Z,779.56
2016-10-09T02:31:09.131Z,777.96
2016-10-09T02:32:09.136Z,777.97
2016-10-09T02:33:09.144Z,776.54
2016-10-09T02:34:09.120Z,775.11
2016-10-09T02:35:09.127Z,774.78
2016-10-09T02:36:09.120Z,773.44
2016-10-09T02:37:09.125Z,773.13
2016-10-09T02:38:09.133Z,772.2
2016-10-09T02:39:09.179Z,771.02
2016-10-09T02:40:09.140Z,770.9
2016-10-09T02:41:09.141Z,769.92
2016-10-09T02:42:09.130Z,768.93
2016-10-09T02:43:09.148Z,769.15
2016-10-09T02:44:09.146Z,769.32
2016-10-09T02:45:09.152Z,768.31
2016-10-09T02:46:09.162Z,767.68
2016-10-09T02:47:09.135Z,766.9
2016-10-09T02:48:09.133Z,766.52
2016-10-09T02:49:09.134Z,765.68
2016-10-09T02:50:09.143Z,764.2
2016-10-09T02:51:09.150Z,764.4
2016-10-09T02:52:09.147Z,763.06
2016-10-09T02:53:09.143Z,762.3
2016-10-09T02:54:09.145Z,762.01
2016-10-09T02:55:09.157Z,760.85
2016-10-09T02:56:09.160Z,760.06
2016-10-09T02:57:09.133Z,759.18
2016-10-09T02:58:09.152Z,758.4
2016-10-09T02:59:09.157Z,756.95
2016-10-09T03:00:09.153Z,755.29
2016-10-09T03:01:09.201Z,754.31
2016-10-09T03:02:09.164Z,752.81
2016-10-09T03:03:09.172Z,750.72
2016-10-09T03:04:09.154Z,749.88
2016-10-09T03:05:09.143Z,748.37
2016-10-09T03:06:09.153Z,746.89
2016-10-09T03:07:09.160Z,745.77
2016-10-09T03:08:09.148Z,745.46
2016-10-09T03:09:09.158Z,744.11
2016-10-09T03:10:09.151Z,742.48
2016-10-09T03:11:09.161Z,740.32
2016-10-09T03:12:09.160Z,739.23
2016-10-09T03:13:09.167Z,737.39
2016-10-09T03:14:09.160Z,735.57
2016-10-09T03:15:09.151Z,734.04
2016-10-09T03:16:09.160Z,732.4
2016-10-09T03:17:09.151Z,731.2
2016-10-09T03:18:09.160Z,730.38
2016-10-09T03:19:09.167Z,728.91
2016-10-09T03:20:09.157Z,728.74
2016-10-09T03:21:09.154Z,729.12
2016-10-09T03:22:09.163Z,728.09
2016-10-09T03:23:09.169Z,727.55
2016-10-09T03:24:09.161Z,726.52
2016-10-09T03:25:09.164Z,726.34
2016-10-09T03:26:09.151Z,725.16
2016-10-09T03:27:09.173Z,724.86
2016-10-09T03:28:09.164Z,724.68
2016-10-09T03:29:09.170Z,723.3
2016-10-09T03:30:09.180Z,722.99
2016-10-09T03:31:09.170Z,722.27
2016-10-09T03:32:09.170Z,723.96
2016-10-09T03:33:09.161Z,723.57
2016-10-09T03:34:09.185Z,724.75
2016-10-09T03:35:09.161Z,724.43
2016-10-09T03:36:09.180Z,722.98
2016-10-09T03:37:09.167Z,722.89
2016-10-09T03:38:09.201Z,721.38
2016-10-09T03:39:09.179Z,719.32
2016-10-09T03:40:09.179Z,718.34
2016-10-09T03:41:09.180Z,716.99
2016-10-09T03:42:09.188Z,716.33
2016-10-09T03:43:09.182Z,714.97
2016-10-09T03:44:09.183Z,714.3
2016-10-09T03:45:09.182Z,713.09
2016-10-09T03:46:09.205Z,712.02
2016-10-09T03:47:09.195Z,710.15
2016-10-09T03:48:09.173Z,708.74
2016-10-09T03:49:09.189Z,707.41
2016-10-09T03:50:09.189Z,706.38
2016-10-09T03:51:09.192Z,705.57
2016-10-09T03:52:09.184Z,703.84
2016-10-09T03:53:09.184Z,702.23
2016-10-09T03:54:09.224Z,700.88
2016-10-09T03:55:09.186Z,699.49
2016-10-09T03:56:09.192Z,698.46
2016-10-09T03:57:09.209Z,697.09
2016-10-09T03:58:09.189Z,695.16
2016-10-09T03:59:09.192Z,694.71
2016-10-09T04:00:09.198Z,693.11
2016-10-09T04:01:09.195Z,691.84
2016-10-09T04:02:09.187Z,691.02
2016-10-09T04:03:09.190Z,689.08
2016-10-09T04:04:09.183Z,688.59
2016-10-09T04:05:09.199Z,686.93
2016-10-09T04:06:09.202Z,686.31
2016-10-09T04:07:09.195Z,685.26
2016-10-09T04:08:09.199Z,684.54
2016-10-09T04:09:09.196Z,683.54
2016-10-09T04:10:09.193Z,682.27
2016-10-09T04:11:09.200Z,681.41
2016-10-09T04:12:09.191Z,680.66
2016-10-09T04:13:09.199Z,679.61
2016-10-09T04:14:09.211Z,678.92
2016-10-09T04:15:09.197Z,677.69
2016-10-09T04:16:09.189Z,676.96
2016-10-09T04:17:09.211Z,676.13
2016-10-09T04:18:09.189Z,675.41
2016-10-09T04:19:09.203Z,674.5
2016-10-09T04:20:09.199Z,673.45
2016-10-09T04:21:09.203Z,672.87
2016-10-09T04:22:09.210Z,672.73
2016-10-09T04:23:09.199Z,671.5
2016-10-09T04:24:09.212Z,671.12
2016-10-09T04:25:09.228Z,669.49
2016-10-09T04:26:09.211Z,669.15
2016-10-09T04:27:09.202Z,668.27
2016-10-09T04:28:09.207Z,667.32
2016-10-09T04:29:09.219Z,667.2
2016-10-09T04:30:09.206Z,666.3
2016-10-09T04:31:09.221Z,665.03
2016-10-09T04:32:09.204Z,665.17
2016-10-09T04:33:09.218Z,664.85
2016-10-09T04:34:09.225Z,664.09
2016-10-09T04:35:09.223Z,663.79
2016-10-09T04:36:09.200Z,664.54
2016-10-09T04:37:09.207Z,663.41
2016-10-09T04:38:09.227Z,662.49
2016-10-09T04:39:09.213Z,662.31
2016-10-09T04:40:09.235Z,661.81
2016-10-09T04:41:09.235Z,661.4
2016-10-09T04:42:09.237Z,660.3
2016-10-09T04:43:09.249Z,660.17
2016-10-09T04:44:09.251Z,659.23
2016-10-09T04:45:09.241Z,658.72
2016-10-09T04:46:09.247Z,657.96
2016-10-09T04:47:09.246Z,657.63
2016-10-09T04:48:09.238Z,656.75
2016-10-09T04:49:09.229Z,655.51
2016-10-09T04:50:09.255Z,654.66
2016-10-09T04:51:09.248Z,653.37
2016-10-09T04:52:09.238Z,652.64
2016-10-09T04:53:09.240Z,650.61
2016-10-09T04:54:09.244Z,650.06
2016-10-09T04:55:09.244Z,649.7
2016-10-09T04:56:09.274Z,648.43
2016-10-09T04:57:09.265Z,647.53
2016-10-09T04:58:09.243Z,646.8
2016-10-09T04:59:09.239Z,645.93
2016-10-09T05:00:09.238Z,645.95
2016-10-09T05:01:09.241Z,644.77
2016-10-09T05:02:09.261Z,643.52
2016-10-09T05:03:09.260Z,642.41
2016-10-09T05:04:09.240Z,641.15
2016-10-09T05:05:09.246Z,640.06
2016-10-09T05:06:09.268Z,639.16
2016-10-09T05:07:09.244Z,637.87
2016-10-09T05:08:09.248Z,638.31
2016-10-09T05:09:09.243Z,638.09
2016-10-09T05:10:09.245Z,637.89
2016-10-09T05:11:09.233Z,638.15
2016-10-09T05:12:09.272Z,638.69
2016-10-09T05:13:09.270Z,637.96
2016-10-09T05:14:09.245Z,637.41
2016-10-09T05:15:09.280Z,637.08
2016-10-09T05:16:09.273Z,636.15
2016-10-09T05:17:09.293Z,635.45
2016-10-09T05:18:09.239Z,634.33
2016-10-09T05:19:09.234Z,633.4
2016-10-09T05:20:09.253Z,632.7
2016-10-09T05:21:09.232Z,631.37
2016-10-09T05:22:09.241Z,631.21
2016-10-09T05:23:09.248Z,629.73
2016-10-09T05:24:09.249Z,628.63
2016-10-09T05:25:09.262Z,627.5
2016-10-09T05:26:09.241Z,626.28
2016-10-09T05:27:09.242Z,625.33
2016-10-09T05:28:09.243Z,623.04
2016-10-09T05:29:09.254Z,621.94
2016-10-09T05:30:09.256Z,621.46
2016-10-09T05:31:09.254Z,619.6
2016-10-09T05:32:09.251Z,618.08
2016-10-09T05:33:09.250Z,616.84
2016-10-09T05:34:09.249Z,615.34
2016-10-09T05:35:09.252Z,614.56
2016-10-09T05:36:09.265Z,613.46
2016-10-09T05:37:09.258Z,614.05
2016-10-09T05:38:09.246Z,613.12
2016-10-09T05:39:09.255Z,612.13
2016-10-09T05:40:09.264Z,612.7
2016-10-09T05:41:09.319Z,612.49
2016-10-09T05:42:09.260Z,611.73
2016-10-09T05:43:09.251Z,611.71
2016-10-09T05:44:09.269Z,611.55
2016-10-09T05:45:09.265Z,610.97
2016-10-09T05:46:09.259Z,610.62
2016-10-09T05:47:09.290Z,611.21
2016-10-09T05:48:09.279Z,610.63
2016-10-09T05:49:09.271Z,609.47
2016-10-09T05:50:09.264Z,610.06
2016-10-09T05:51:09.258Z,610.67
2016-10-09T05:52:09.268Z,611.01
2016-10-09T05:53:09.261Z,610.66
2016-10-09T05:54:09.272Z,611.03
2016-10-09T05:55:09.272Z,611.48
2016-10-09T05:56:09.269Z,612.01
2016-10-09T05:57:09.271Z,612.22
2016-10-09T05:58:09.254Z,612.78
2016-10-09T05:59:09.268Z,612.6
2016-10-09T06:00:09.267Z,612.81
2016-10-09T06:01:09.284Z,612.16
2016-10-09T06:02:09.303Z,611.8
2016-10-09T06:03:09.267Z,611.62
2016-10-09T06:04:09.264Z,611.77
2016-10-09T06:05:09.271Z,612.13
2016-10-09T06:06:09.267Z,612.34
2016-10-09T06:07:09.271Z,613.46
2016-10-09T06:08:09.270Z,614.8
2016-10-09T06:09:09.267Z,614.76
2016-10-09T06:10:09.290Z,614.77
2016-10-09T06:11:09.277Z,614.99
2016-10-09T06:12:09.290Z,615.75
2016-10-09T06:13:09.275Z,617.65
2016-10-09T06:14:09.284Z,617.97
2016-10-09T06:15:09.290Z,618.94
2016-10-09T06:16:09.283Z,619.29
2016-10-09T06:17:09.279Z,620.18
2016-10-09T06:18:09.293Z,621.71
2016-10-09T06:19:09.275Z,622.99
2016-10-09T06:20:09.271Z,622.76
2016-10-09T06:21:09.279Z,624.46
2016-10-09T06:22:09.364Z,626.4
2016-10-09T06:23:09.284Z,627.7
2016-10-09T06:24:09.294Z,628.25
2016-10-09T06:25:09.303Z,629.93
2016-10-09T06:26:09.294Z,631.59
2016-10-09T06:27:09.293Z,632.35
2016-10-09T06:28:09.280Z,634.18
2016-10-09T06:29:09.297Z,635.51
2016-10-09T06:30:09.291Z,636.4
2016-10-09T06:31:09.296Z,637.86
2016-10-09T06:32:09.306Z,639.66
2016-10-09T06:33:09.312Z,641.54
2016-10-09T06:34:09.302Z,643.93
2016-10-09T06:35:09.294Z,645.82
2016-10-09T06:36:09.300Z,647.47
2016-10-09T06:37:09.296Z,648.94
2016-10-09T06:38:09.305Z,650.79
2016-10-09T06:39:09.290Z,652.84
2016-10-09T06:40:09.284Z,653.83
2016-10-09T06:41:09.300Z,656.16
2016-10-09T06:42:09.288Z,657.8
2016-10-09T06:43:09.315Z,660.14
2016-10-09T06:44:09.339Z,661.94
2016-10-09T06:45:09.288Z,662.99
2016-10-09T06:46:09.322Z,664.99
2016-10-09T06:47:09.304Z,666.59
2016-10-09T06:48:09.290Z,668.38
2016-10-09T06:49:09.501Z,670.3
2016-10-09T06:50:09.306Z,672.32
2016-10-09T06:51:09.323Z,674.73
2016-10-09T06:52:09.326Z,676.19
2016-10-09T06:53:09.344Z,678.83
2016-10-09T06:54:09.303Z,681.08
2016-10-09T06:55:09.309Z,683.53
2016-10-09T06:56:09.469Z,685.88
2016-10-09T06:57:09.311Z,687.72
2016-10-09T06:58:09.316Z,689.1
2016-10-09T06:59:09.338Z,691.38
2016-10-09T07:00:09.302Z,694.02
2016-10-09T07:01:09.315Z,696.62
2016-10-09T07:02:09.300Z,698.74
2016-10-09T07:03:27.863Z,700.61
2016-10-09T07:04:57.484Z,704.44
2016-10-09T07:06:38.231Z,704.86
2016-10-09T07:07:29.808Z,710.13
2016-10-09T07:08:29.806Z,712.05
2016-10-09T07:09:29.795Z,713.37
2016-10-09T07:10:29.831Z,716.12
2016-10-09T07:11:29.792Z,719.23
2016-10-09T07:12:29.806Z,721.94
2016-10-09T07:13:30.054Z,725.35
2016-10-09T07:14:29.818Z,730.22
2016-10-09T07:15:29.792Z,733.62
2016-10-09T07:16:29.818Z,738.46
2016-10-09T07:17:29.810Z,742.7
2016-10-09T07:18:29.933Z,746.01
2016-10-09T07:19:29.796Z,749.59
2016-10-09T07:20:29.793Z,754.06
2016-10-09T07:21:29.799Z,758.09
2016-10-09T07:22:29.820Z,762.11
2016-10-09T07:23:29.817Z,765.86
2016-10-09T07:24:29.804Z,769.53
2016-10-09T07:25:29.795Z,774
2016-10-09T07:26:30.387Z,777.67
2016-10-09T07:27:29.820Z,782.42
2016-10-09T07:28:29.809Z,785.84
2016-10-09T07:29:29.802Z,789.29
2016-10-09T07:30:29.807Z,793.2
2016-10-09T07:31:29.802Z,797.11
2016-10-09T07:32:29.824Z,800.8
2016-10-09T07:33:29.798Z,804.83
2016-10-09T07:34:29.805Z,808
2016-10-09T07:35:29.798Z,811.5
2016-10-09T07:36:29.866Z,815.05
2016-10-09T07:37:29.849Z,818.48
2016-10-09T07:38:29.802Z,821.94
2016-10-09T07:39:29.817Z,825.05
2016-10-09T07:40:29.801Z,829.19
2016-10-09T07:41:29.805Z,832.98
2016-10-09T07:42:29.850Z,837.38
2016-10-09T07:43:29.805Z,841.46
2016-10-09T07:44:29.801Z,845.9
2016-10-09T07:45:29.834Z,849.65
2016-10-09T07:46:29.829Z,853.12
2016-10-09T07:47:29.821Z,856.54
2016-10-09T07:48:29.842Z,858.98
2016-10-09T07:49:30.105Z,861.86
2016-10-09T07:50:29.813Z,863.66
2016-10-09T07:51:29.818Z,866.36
2016-10-09T07:52:29.849Z,868.12
2016-10-09T07:53:29.817Z,870.25
2016-10-09T07:54:29.840Z,871.38
2016-10-09T07:55:29.821Z,872.64
2016-10-09T07:56:29.829Z,874.14
2016-10-09T07:57:29.844Z,875.65
2016-10-09T07:58:29.835Z,877.82
2016-10-09T07:59:29.855Z,879.28
2016-10-09T08:00:29.823Z,881.65
2016-10-09T08:01:29.826Z,884.36
2016-10-09T08:02:29.833Z,887.77
2016-10-09T08:03:29.826Z,891.4
2016-10-09T08:04:29.817Z,896
2016-10-09T08:05:29.887Z,900.66
2016-10-09T08:06:29.830Z,905.5
2016-10-09T08:07:29.879Z,910.26
2016-10-09T08:08:29.828Z,914.29
2016-10-09T08:09:29.829Z,917.36
2016-10-09T08:10:29.834Z,920.15
2016-10-09T08:11:29.840Z,923.6
2016-10-09T08:12:29.856Z,925.65
2016-10-09T08:13:29.831Z,928.23
2016-10-09T08:14:29.836Z,930.27
2016-10-09T08:15:29.829Z,932.1
2016-10-09T08:16:29.824Z,934.65
2016-10-09T08:17:29.860Z,938.25
2016-10-09T08:18:29.830Z,941.47
2016-10-09T08:19:29.843Z,945.53
2016-10-09T08:20:29.832Z,949.11
2016-10-09T08:21:29.835Z,952.33
2016-10-09T08:22:29.862Z,956.4
2016-10-09T08:23:29.846Z,960.85
2016-10-09T08:24:29.859Z,965.03
2016-10-09T08:25:29.842Z,969.6
2016-10-09T08:26:29.849Z,974.88
2016-10-09T08:27:29.873Z,980.59
2016-10-09T08:28:29.838Z,987.84
2016-10-09T08:29:29.845Z,993.39
2016-10-09T08:30:29.851Z,999.22
2016-10-09T08:31:29.858Z,1004.77
2016-10-09T08:32:30.752Z,1009.68
2016-10-09T08:33:29.875Z,1014.11
2016-10-09T08:34:29.841Z,1017.85
2016-10-09T08:35:29.933Z,1021.34
2016-10-09T08:36:29.880Z,1025.63
2016-10-09T08:37:29.854Z,1029.06
2016-10-09T08:38:29.870Z,1032.92
2016-10-09T08:39:29.869Z,1036.2
2016-10-09T08:40:29.865Z,1039.33
2016-10-09T08:41:29.854Z,1041.56
2016-10-09T08:42:29.887Z,1044.15
2016-10-09T08:43:29.854Z,1045.79
2016-10-09T08:44:29.859Z,1048.07
2016-10-09T08:45:29.945Z,1050.06
2016-10-09T08:46:29.887Z,1052.97
2016-10-09T08:47:29.896Z,1056.12
2016-10-09T08:48:29.877Z,1058.38
2016-10-09T08:49:29.848Z,1061.04
2016-10-09T08:50:29.852Z,1063.31
2016-10-09T08:51:29.881Z,1065.2
2016-10-09T08:52:29.881Z,1066.54
2016-10-09T08:53:29.892Z,1066.67
2016-10-09T08:54:29.894Z,1066.67
2016-10-09T08:55:29.867Z,1066.48
2016-10-09T08:56:29.875Z,1066.57
2016-10-09T08:57:29.899Z,1066.62
2016-10-09T08:58:29.861Z,1065.6
2016-10-09T08:59:29.870Z,1064.56
2016-10-09T09:00:29.883Z,1064.29
2016-10-09T09:01:30.021Z,1063.63
2016-10-09T09:02:29.928Z,1062.53
2016-10-09T09:03:29.868Z,1062.44
2016-10-09T09:04:29.874Z,1062.39
2016-10-09T09:05:29.950Z,1061.05
2016-10-09T09:06:29.874Z,1060.3
2016-10-09T09:07:29.909Z,1060.91
2016-10-09T09:08:29.902Z,1062.26
2016-10-09T09:09:29.884Z,1065.04
2016-10-09T09:10:29.883Z,1067.9
2016-10-09T09:11:29.869Z,1071.53
2016-10-09T09:12:29.902Z,1074.94
2016-10-09T09:13:29.883Z,1078.46
2016-10-09T09:14:29.892Z,1082.39
2016-10-09T09:15:29.895Z,1086.27
2016-10-09T09:16:29.887Z,1090.33
2016-10-09T09:17:29.928Z,1095.31
2016-10-09T09:18:29.883Z,1099.22
2016-10-09T09:19:29.919Z,1102.29
2016-10-09T09:20:29.914Z,1105.25
2016-10-09T09:21:29.892Z,1107.86
2016-10-09T09:22:29.930Z,1109.95
2016-10-09T09:23:29.908Z,1111.46
2016-10-09T09:24:29.897Z,1111.9
2016-10-09T09:25:29.892Z,1112.39
2016-10-09T09:26:29.905Z,1112.06
2016-10-09T09:27:32.139Z,1112.57
2016-10-09T09:28:31.324Z,1113.09
2016-10-09T09:29:29.914Z,1113.31
2016-10-09T09:30:29.893Z,1113.98
2016-10-09T09:31:29.927Z,1114.73
2016-10-09T09:32:29.903Z,1115.2
2016-10-09T09:33:29.886Z,1116.42
2016-10-09T09:34:29.890Z,1117.77
2016-10-09T09:35:29.894Z,1119.03
2016-10-09T09:36:29.889Z,1120.19
2016-10-09T09:37:29.910Z,1119.54
2016-10-09T09:38:29.900Z,1119.15
2016-10-09T09:39:29.894Z,1117.79
2016-10-09T09:40:29.902Z,1117.95
2016-10-09T09:41:29.905Z,1117.92
2016-10-09T09:42:29.910Z,1118.02
2016-10-09T09:43:29.925Z,1118.34
2016-10-09T09:44:29.928Z,1117.83
2016-10-09T09:45:29.905Z,1117.38
2016-10-09T09:46:29.922Z,1116.43
2016-10-09T09:47:29.934Z,1114.94
2016-10-09T09:48:29.909Z,1113.08
2016-10-09T09:49:29.925Z,1109.25
2016-10-09T09:50:29.903Z,1104.79
2016-10-09T09:51:29.937Z,1099.61
2016-10-09T09:52:29.939Z,1093.63
2016-10-09T09:53:29.910Z,1088.45
2016-10-09T09:54:29.929Z,1083.09
2016-10-09T09:55:29.919Z,1078.57
2016-10-09T09:56:29.988Z,1074.35
2016-10-09T09:57:30.040Z,1069.72
2016-10-09T09:58:29.963Z,1064.4
2016-10-09T09:59:29.927Z,1060.27
2016-10-09T10:00:29.916Z,1056.46
2016-10-09T10:01:29.909Z,1052.95
2016-10-09T10:02:29.937Z,1049.88
2016-10-09T10:03:29.922Z,1046.94
2016-10-09T10:04:29.924Z,1044.98
2016-10-09T10:05:29.927Z,1044.28
2016-10-09T10:06:29.931Z,1043.54
2016-10-09T10:07:29.955Z,1042.7
2016-10-09T10:08:29.931Z,1042.76
2016-10-09T10:09:29.936Z,1042.66
2016-10-09T10:10:30.004Z,1043.15
2016-10-09T10:11:30.008Z,1043.68
2016-10-09T10:12:29.950Z,1044.29
2016-10-09T10:13:29.928Z,1044.24
2016-10-09T10:14:29.959Z,1044.16
2016-10-09T10:15:29.941Z,1044.17
2016-10-09T10:16:29.963Z,1043.98
2016-10-09T10:17:29.962Z,1044.48
2016-10-09T10:18:29.937Z,1044.96
2016-10-09T10:19:30.775Z,1045.06
2016-10-09T10:20:29.937Z,1046.05
2016-10-09T10:21:30.032Z,1046.85
2016-10-09T10:22:29.953Z,1047.87
2016-10-09T10:23:29.968Z,1048.28
2016-10-09T10:24:30.021Z,1049.2
2016-10-09T10:25:29.958Z,1050.28
2016-10-09T10:26:29.950Z,1051.56
2016-10-09T10:27:29.961Z,1053.33
2016-10-09T10:28:29.953Z,1054.82
2016-10-09T10:29:42.430Z,1056.37
2016-10-09T10:30:58.337Z,1058.34
2016-10-09T10:31:47.198Z,1060.46
2016-10-09T10:32:59.944Z,1061.95
2016-10-09T10:34:16.424Z,1065.02
2016-10-09T10:35:19.763Z,1068.03
2016-10-09T10:36:12.329Z,1070.84
2016-10-09T10:37:12.099Z,1073.75
2016-10-09T10:38:12.137Z,1076.4
2016-10-09T10:39:12.095Z,1079.43
2016-10-09T10:40:12.096Z,1082.34
2016-10-09T10:41:12.119Z,1084.37
2016-10-09T10:42:12.090Z,1087.35
2016-10-09T10:43:12.123Z,1090.2
2016-10-09T10:44:12.118Z,1092.29
2016-10-09T10:45:12.187Z,1094.45
2016-10-09T10:46:12.104Z,1095.69
2016-10-09T10:47:12.102Z,1096.27
2016-10-09T10:48:12.115Z,1095.69
2016-10-09T10:49:12.498Z,1094.58
2016-10-09T10:50:12.131Z,1094.36
2016-10-09T10:51:12.108Z,1094.28
2016-10-09T10:52:12.843Z,1093.6
2016-10-09T10:53:12.725Z,1093.74
2016-10-09T10:54:12.102Z,1095.63
2016-10-09T10:55:12.125Z,1098.77
2016-10-09T10:56:12.115Z,1102.37
2016-10-09T10:57:12.124Z,1105.74
2016-10-09T10:58:12.122Z,1108.27
2016-10-09T10:59:12.671Z,1110.6
2016-10-09T11:00:12.154Z,1113.01
2016-10-09T11:01:12.164Z,1116.43
2016-10-09T11:02:12.119Z,1120.19
2016-10-09T11:03:12.200Z,1124.68
2016-10-09T11:04:12.126Z,1127.99
2016-10-09T11:05:16.494Z,1130.03
2016-10-09T11:06:14.571Z,1131.48
2016-10-09T11:07:12.884Z,1132.55
2016-10-09T11:08:12.158Z,1134.13
2016-10-09T11:09:12.712Z,1134.99
2016-10-09T11:10:13.253Z,1135.24
2016-10-09T11:11:12.156Z,1136.11
2016-10-09T11:12:12.197Z,1136.75
2016-10-09T11:13:12.146Z,1138.03
2016-10-09T11:14:12.429Z,1139.59
2016-10-09T11:15:12.120Z,1142.11
2016-10-09T11:16:12.126Z,1144.46
2016-10-09T11:17:12.149Z,1146.55
2016-10-09T11:18:12.151Z,1148.27
2016-10-09T11:19:12.127Z,1150.19
2016-10-09T11:20:12.130Z,1152
2016-10-09T11:21:12.129Z,1153.81
2016-10-09T11:22:12.164Z,1155.59
2016-10-09T11:23:12.140Z,1156.92
2016-10-09T11:24:12.185Z,1158.17
2016-10-09T11:25:12.140Z,1158.59
2016-10-09T11:26:12.134Z,1158.97
2016-10-09T11:27:12.476Z,1159.13
2016-10-09T11:28:12.147Z,1159.48
2016-10-09T11:29:12.140Z,1159.66
2016-10-09T11:30:12.149Z,1159.72
2016-10-09T11:31:12.139Z,1159.69
2016-10-09T11:32:12.141Z,1159.43
2016-10-09T11:33:13.123Z,1158.85
2016-10-09T11:34:12.158Z,1158.03
2016-10-09T11:35:12.146Z,1157.13
2016-10-09T11:36:12.170Z,1155.8
2016-10-09T11:37:12.142Z,1154.96
2016-10-09T11:38:12.175Z,1154.37
2016-10-09T11:39:12.147Z,1154.3
2016-10-09T11:40:12.150Z,1154.23
2016-10-09T11:41:12.150Z,1153.9
2016-10-09T11:42:12.175Z,1153.91
2016-10-09T11:43:12.170Z,1153.65
2016-10-09T11:44:12.167Z,1152.99
2016-10-09T11:45:12.157Z,1152.76
2016-10-09T11:46:12.356Z,1152.73
2016-10-09T11:47:12.152Z,1152.78
2016-10-09T11:48:12.207Z,1153.17
2016-10-09T11:49:12.166Z,1153.85
2016-10-09T11:50:12.194Z,1154.6
2016-10-09T11:51:12.181Z,1155.19
2016-10-09T11:52:12.180Z,1155.36
2016-10-09T11:53:12.404Z,1155.56
2016-10-09T11:54:12.152Z,1155.66
2016-10-09T11:55:12.178Z,1155.87
2016-10-09T11:56:12.196Z,1156.01
2016-10-09T11:57:12.180Z,1155.82
2016-10-09T11:58:12.171Z,1155.95
2016-10-09T11:59:12.215Z,1155.45
2016-10-09T12:00:12.171Z,1154.68
2016-10-09T12:01:12.154Z,1153.6
2016-10-09T12:02:12.283Z,1151.71
2016-10-09T12:03:12.199Z,1150.41
2016-10-09T12:04:12.168Z,1148.84
2016-10-09T12:05:12.170Z,1147.39
2016-10-09T12:06:12.431Z,1147.05
2016-10-09T12:07:12.182Z,1146.55
2016-10-09T12:08:12.195Z,1145.52
2016-10-09T12:09:12.182Z,1144.53
2016-10-09T12:10:12.184Z,1142.47
2016-10-09T12:11:12.201Z,1140.83
2016-10-09T12:12:12.191Z,1139.19
2016-10-09T12:13:12.198Z,1137.82
2016-10-09T12:14:12.175Z,1136.65
2016-10-09T12:15:12.268Z,1134.2
2016-10-09T12:16:12.223Z,1132.15
2016-10-09T12:17:12.207Z,1131.48
2016-10-09T12:18:12.207Z,1130.87
2016-10-09T12:19:12.178Z,1130.27
2016-10-09T12:20:12.181Z,1129.58
2016-10-09T12:21:12.214Z,1127.7
2016-10-09T12:22:12.989Z,1125.68
2016-10-09T12:23:12.215Z,1123.55
2016-10-09T12:24:12.195Z,1121.63
2016-10-09T12:25:12.215Z,1120.3
2016-10-09T12:26:13.637Z,1119.4